createdAt,value
2022-11-29T00:01:32.668Z,24.57
2022-11-29T00:04:00.379Z,24.27
2022-11-29T00:06:29.493Z,22.83
2022-11-29T00:08:57.934Z,23.73
2022-11-29T00:11:45.862Z,23.03
2022-11-29T00:14:15.381Z,25.50
2022-11-29T00:16:43.568Z,23.80
2022-11-29T00:19:11.961Z,23.80
2022-11-29T00:21:38.940Z,24.33
2022-11-29T00:24:06.351Z,24.87
2022-11-29T00:26:32.810Z,25.90
2022-11-29T00:28:59.267Z,23.73
2022-11-29T00:31:32.555Z,23.70
2022-11-29T00:34:01.657Z,24.43
2022-11-29T00:36:29.062Z,23.90
2022-11-29T00:38:56.274Z,24.13
2022-11-29T00:41:23.056Z,23.80
2022-11-29T00:43:49.554Z,27.73
2022-11-29T00:46:16.213Z,28.40
2022-11-29T00:48:42.745Z,27.30
2022-11-29T00:51:09.564Z,26.10
2022-11-29T00:53:36.924Z,25.93
2022-11-29T00:56:04.604Z,24.83
2022-11-29T00:58:31.370Z,25.97
2022-11-29T01:00:58.106Z,25.00
2022-11-29T01:03:24.938Z,24.67
2022-11-29T01:05:52.218Z,25.20
2022-11-29T01:08:19.114Z,23.90
2022-11-29T01:10:45.682Z,23.47
2022-11-29T01:13:12.123Z,23.87
2022-11-29T01:15:38.649Z,25.23
2022-11-29T01:18:05.637Z,25.23
2022-11-29T01:20:32.143Z,25.63
2022-11-29T01:22:58.986Z,26.60
2022-11-29T01:25:26.628Z,24.07
2022-11-29T01:27:54.309Z,25.83
2022-11-29T01:30:21.426Z,25.40
2022-11-29T01:32:48.024Z,26.80
2022-11-29T01:35:14.480Z,26.03
2022-11-29T01:37:41.137Z,26.40
2022-11-29T01:40:08.375Z,28.30
2022-11-29T01:42:34.866Z,26.27
2022-11-29T01:45:21.542Z,26.30
2022-11-29T01:47:52.664Z,26.83
2022-11-29T01:50:20.100Z,29.10
2022-11-29T01:52:48.281Z,28.97
2022-11-29T01:55:15.672Z,30.03
2022-11-29T01:57:44.187Z,28.67
2022-11-29T02:00:14.531Z,30.63
2022-11-29T02:02:45.661Z,31.50
2022-11-29T02:05:14.704Z,31.87
2022-11-29T02:07:46.128Z,31.60
2022-11-29T02:10:15.666Z,32.40
2022-11-29T02:12:51.436Z,35.43
2022-11-29T02:15:46.886Z,36.20
2022-11-29T02:18:21.975Z,36.77
2022-11-29T02:21:09.797Z,36.50
2022-11-29T02:24:09.728Z,36.07
2022-11-29T02:27:02.612Z,39.23
2022-11-29T02:29:32.199Z,37.53
2022-11-29T02:32:17.550Z,38.57
2022-11-29T02:35:21.222Z,37.07
2022-11-29T02:38:23.960Z,42.07
2022-11-29T02:41:12.219Z,37.50
2022-11-29T02:44:06.830Z,39.10
2022-11-29T02:47:10.503Z,37.57
2022-11-29T02:49:39.901Z,41.17
2022-11-29T02:52:32.487Z,40.40
2022-11-29T02:55:07.300Z,41.97
2022-11-29T02:57:47.487Z,41.57
2022-11-29T03:00:18.510Z,41.30
2022-11-29T03:02:51.304Z,40.03
2022-11-29T03:05:35.812Z,39.77
2022-11-29T03:08:24.463Z,41.77
2022-11-29T03:11:35.785Z,41.63
2022-11-29T03:14:37.841Z,42.23
2022-11-29T03:17:35.224Z,41.90
2022-11-29T03:20:24.095Z,44.60
2022-11-29T03:22:53.357Z,44.20
2022-11-29T03:25:29.745Z,42.97
2022-11-29T03:28:06.436Z,43.87
2022-11-29T03:30:38.430Z,44.40
2022-11-29T03:33:09.710Z,41.00
2022-11-29T03:35:39.221Z,41.77
2022-11-29T03:38:21.173Z,42.43
2022-11-29T03:41:01.240Z,43.87
2022-11-29T03:43:39.370Z,44.10
2022-11-29T03:46:16.011Z,44.00
2022-11-29T03:49:17.971Z,42.13
2022-11-29T03:52:19.070Z,39.73
2022-11-29T03:55:06.208Z,39.70
2022-11-29T03:58:11.065Z,41.17
2022-11-29T04:00:49.592Z,39.73
2022-11-29T04:03:43.315Z,38.97
2022-11-29T04:06:39.134Z,37.90
2022-11-29T04:09:21.010Z,37.37
2022-11-29T04:12:22.280Z,37.43
2022-11-29T04:15:22.790Z,39.67
2022-11-29T04:18:07.127Z,38.40
2022-11-29T04:20:52.303Z,38.33
2022-11-29T04:23:56.850Z,37.93
2022-11-29T04:26:58.771Z,37.87
2022-11-29T04:29:37.526Z,39.17
2022-11-29T04:32:23.638Z,38.50
2022-11-29T04:35:02.745Z,37.60
2022-11-29T04:37:50.135Z,37.57
2022-11-29T04:40:37.394Z,36.97
2022-11-29T04:43:09.994Z,38.37
2022-11-29T04:45:49.513Z,37.37
2022-11-29T04:48:18.735Z,37.07
2022-11-29T04:51:16.628Z,35.70
2022-11-29T04:53:52.041Z,37.17
2022-11-29T04:56:40.673Z,36.93
2022-11-29T04:59:25.738Z,34.57
2022-11-29T05:02:51.395Z,36.90
2022-11-29T05:05:29.717Z,32.97
2022-11-29T05:08:17.849Z,34.60
2022-11-29T05:10:56.557Z,32.03
2022-11-29T05:13:40.815Z,37.07
2022-11-29T05:16:15.408Z,34.63
2022-11-29T05:18:58.204Z,33.00
2022-11-29T05:21:49.601Z,34.67
2022-11-29T05:24:37.947Z,35.90
2022-11-29T05:27:13.593Z,37.80
2022-11-29T05:29:49.901Z,37.47
2022-11-29T05:32:53.804Z,38.50
2022-11-29T05:36:06.941Z,34.13
2022-11-29T05:38:39.362Z,38.97
2022-11-29T05:41:31.948Z,36.60
2022-11-29T05:44:24.459Z,34.27
2022-11-29T05:46:51.020Z,33.63
2022-11-29T05:49:33.692Z,34.37
2022-11-29T05:52:24.604Z,33.90
2022-11-29T05:55:22.314Z,36.43
2022-11-29T05:58:04.455Z,35.63
2022-11-29T06:00:49.152Z,36.60
2022-11-29T06:03:37.155Z,34.83
2022-11-29T06:06:20.377Z,34.87
2022-11-29T06:08:55.602Z,36.20
2022-11-29T06:11:31.357Z,36.90
2022-11-29T06:14:08.615Z,33.20
2022-11-29T06:17:20.377Z,33.17
2022-11-29T06:20:04.290Z,30.97
2022-11-29T06:22:30.889Z,30.43
2022-11-29T06:25:17.596Z,32.93
2022-11-29T06:28:08.502Z,33.30
2022-11-29T06:31:03.529Z,33.17
2022-11-29T06:33:41.023Z,31.63
2022-11-29T06:36:28.472Z,31.10
2022-11-29T06:38:55.172Z,31.10
2022-11-29T06:41:23.696Z,31.60
2022-11-29T06:43:51.159Z,30.57
2022-11-29T06:46:39.122Z,30.57
2022-11-29T06:49:25.180Z,34.27
2022-11-29T06:52:14.300Z,30.97
2022-11-29T06:54:53.031Z,32.20
2022-11-29T06:57:36.836Z,32.10
2022-11-29T07:00:15.283Z,33.53
2022-11-29T07:02:52.697Z,33.13
2022-11-29T07:05:33.989Z,32.40
2022-11-29T07:08:07.118Z,33.37
2022-11-29T07:10:36.145Z,32.37
2022-11-29T07:13:03.105Z,31.63
2022-11-29T07:15:29.927Z,30.20
2022-11-29T07:18:27.292Z,33.23
2022-11-29T07:20:59.531Z,34.67
2022-11-29T07:23:43.184Z,30.93
2022-11-29T07:26:30.962Z,30.90
2022-11-29T07:29:35.969Z,31.97
2022-11-29T07:32:02.873Z,33.23
2022-11-29T07:34:38.232Z,34.33
2022-11-29T07:37:24.094Z,34.97
2022-11-29T07:40:03.764Z,35.23
2022-11-29T07:42:48.537Z,32.13
2022-11-29T07:45:28.728Z,32.03
2022-11-29T07:47:55.695Z,30.90
2022-11-29T07:50:22.375Z,31.30
2022-11-29T07:52:49.129Z,30.13
2022-11-29T07:55:19.449Z,30.50
2022-11-29T07:57:46.591Z,29.13
2022-11-29T08:00:14.005Z,29.43
2022-11-29T08:02:41.382Z,28.37
2022-11-29T08:05:08.879Z,27.80
2022-11-29T08:07:37.296Z,28.27
2022-11-29T08:10:10.204Z,28.60
2022-11-29T08:12:36.869Z,28.67
2022-11-29T08:15:03.584Z,29.30
2022-11-29T08:17:30.272Z,30.07
2022-11-29T08:20:01.187Z,29.90
2022-11-29T08:22:30.633Z,29.57
2022-11-29T08:24:58.073Z,32.40
2022-11-29T08:27:24.512Z,30.57
2022-11-29T08:29:51.021Z,32.00
2022-11-29T08:32:17.620Z,29.67
2022-11-29T08:34:44.608Z,29.27
2022-11-29T08:37:12.000Z,30.43
2022-11-29T08:39:38.431Z,30.77
2022-11-29T08:42:05.003Z,29.23
2022-11-29T08:44:31.530Z,30.60
2022-11-29T08:47:16.686Z,29.77
2022-11-29T08:50:01.343Z,28.30
2022-11-29T08:52:54.168Z,28.40
2022-11-29T08:55:22.715Z,28.37
2022-11-29T08:57:50.449Z,27.33
2022-11-29T09:00:18.751Z,26.27
2022-11-29T09:02:45.230Z,24.80
2022-11-29T09:05:12.000Z,23.87
2022-11-29T09:07:38.938Z,24.17
2022-11-29T09:10:08.387Z,26.10
2022-11-29T09:12:36.366Z,27.67
2022-11-29T09:15:09.038Z,26.43
2022-11-29T09:17:35.547Z,23.90
2022-11-29T09:20:02.111Z,24.67
2022-11-29T09:22:28.678Z,26.50
2022-11-29T09:24:55.147Z,25.87
2022-11-29T09:27:21.615Z,25.10
2022-11-29T09:29:48.089Z,24.43
2022-11-29T09:32:14.586Z,26.37
2022-11-29T09:34:42.408Z,24.20
2022-11-29T09:37:09.607Z,27.83
2022-11-29T09:39:36.133Z,28.03
2022-11-29T09:42:09.707Z,26.07
2022-11-29T09:45:01.897Z,28.70
2022-11-29T09:48:13.983Z,24.87
2022-11-29T09:50:48.621Z,27.10
2022-11-29T09:53:21.164Z,24.60
2022-11-29T09:56:04.902Z,25.63
2022-11-29T09:58:41.719Z,23.30
2022-11-29T10:01:13.140Z,23.80
2022-11-29T10:03:47.057Z,21.90
2022-11-29T10:06:13.455Z,24.37
2022-11-29T10:08:53.748Z,23.10
2022-11-29T10:11:35.310Z,23.47
2022-11-29T10:14:11.994Z,22.43
2022-11-29T10:16:49.506Z,25.77
2022-11-29T10:19:21.447Z,25.50
2022-11-29T10:22:00.836Z,27.27
2022-11-29T10:24:29.338Z,25.20
2022-11-29T10:26:55.923Z,24.17
2022-11-29T10:29:23.323Z,24.13
2022-11-29T10:31:49.860Z,25.40
2022-11-29T10:34:20.044Z,27.27
2022-11-29T10:36:49.533Z,24.63
2022-11-29T10:39:29.854Z,24.00
2022-11-29T10:42:00.402Z,24.97
2022-11-29T10:44:27.412Z,24.43
2022-11-29T10:46:56.251Z,22.80
2022-11-29T10:49:27.800Z,25.67
2022-11-29T10:51:54.464Z,24.90
2022-11-29T10:54:41.872Z,26.43
2022-11-29T10:57:18.250Z,25.70
2022-11-29T11:00:11.784Z,24.87
2022-11-29T11:02:38.534Z,23.33
2022-11-29T11:05:18.553Z,24.77
2022-11-29T11:07:47.484Z,25.20
2022-11-29T11:10:27.628Z,23.20
2022-11-29T11:13:20.881Z,24.37
2022-11-29T11:15:47.665Z,24.70
2022-11-29T11:18:22.781Z,25.93
2022-11-29T11:20:58.915Z,25.53
2022-11-29T11:23:56.618Z,25.83
2022-11-29T11:26:24.158Z,25.57
2022-11-29T11:28:56.570Z,24.67
2022-11-29T11:31:35.578Z,24.97
2022-11-29T11:34:23.908Z,25.93
2022-11-29T11:36:50.405Z,25.93
2022-11-29T11:39:23.933Z,27.17
2022-11-29T11:42:10.409Z,28.27
2022-11-29T11:44:58.044Z,28.40
2022-11-29T11:47:35.815Z,29.00
2022-11-29T11:50:02.360Z,28.20
2022-11-29T11:52:30.625Z,27.20
2022-11-29T11:55:19.197Z,27.33
2022-11-29T11:57:45.727Z,27.70
2022-11-29T12:01:02.948Z,27.67
2022-11-29T12:03:43.958Z,30.50
2022-11-29T12:06:31.827Z,29.97
2022-11-29T12:09:04.948Z,30.27
2022-11-29T12:11:41.988Z,29.63
2022-11-29T12:14:18.840Z,27.87
2022-11-29T12:16:49.020Z,29.13
2022-11-29T12:19:23.448Z,28.87
2022-11-29T12:21:56.578Z,31.83
2022-11-29T12:24:34.329Z,31.30
2022-11-29T12:27:04.804Z,28.80
2022-11-29T12:29:34.491Z,31.47
2022-11-29T12:32:04.078Z,29.33
2022-11-29T12:34:36.426Z,29.47
2022-11-29T12:37:19.211Z,30.30
2022-11-29T12:39:57.406Z,27.53
2022-11-29T12:42:42.320Z,30.87
2022-11-29T12:45:17.830Z,26.70
2022-11-29T12:48:10.234Z,28.37
2022-11-29T12:50:51.873Z,27.90
2022-11-29T12:53:42.247Z,29.13
2022-11-29T12:56:15.990Z,29.47
2022-11-29T12:59:21.251Z,28.43
2022-11-29T13:02:18.637Z,28.97
2022-11-29T13:05:03.349Z,28.27
2022-11-29T13:07:38.376Z,29.97
2022-11-29T13:10:29.863Z,30.50
2022-11-29T13:13:04.892Z,28.70
2022-11-29T13:15:42.673Z,27.93
2022-11-29T13:18:35.661Z,28.53
2022-11-29T13:21:12.835Z,28.63
2022-11-29T13:26:30.198Z,27.20
2022-11-29T13:28:58.073Z,25.23
2022-11-29T13:31:25.630Z,28.33
2022-11-29T13:34:10.489Z,29.60
2022-11-29T13:36:45.986Z,29.30
2022-11-29T13:39:25.081Z,29.77
2022-11-29T13:41:58.805Z,27.23
2022-11-29T13:45:17.069Z,28.10
2022-11-29T13:47:55.558Z,28.83
2022-11-29T13:50:40.139Z,28.30
2022-11-29T13:53:13.546Z,27.93
2022-11-29T13:56:01.932Z,29.60
2022-11-29T13:58:28.400Z,28.03
2022-11-29T14:01:01.450Z,27.30
2022-11-29T14:03:29.917Z,26.97
2022-11-29T14:06:02.465Z,26.77
2022-11-29T14:08:48.029Z,23.80
2022-11-29T14:11:32.048Z,24.47
2022-11-29T14:14:04.777Z,22.13
2022-11-29T14:16:43.466Z,22.83
2022-11-29T14:19:13.075Z,24.80
2022-11-29T14:22:07.349Z,24.23
2022-11-29T14:24:36.960Z,21.13
2022-11-29T14:27:06.443Z,20.37
2022-11-29T14:29:56.092Z,21.30
2022-11-29T14:32:29.272Z,19.87
2022-11-29T14:35:10.721Z,20.87
2022-11-29T14:37:40.288Z,21.13
2022-11-29T14:40:42.365Z,20.23
2022-11-29T14:43:24.797Z,19.17
2022-11-29T14:46:10.321Z,19.10
2022-11-29T14:48:38.242Z,19.57
2022-11-29T14:51:12.574Z,18.93
2022-11-29T14:53:41.351Z,19.90
2022-11-29T14:56:29.621Z,18.73
2022-11-29T14:59:33.579Z,18.63
2022-11-29T15:02:05.116Z,18.87
2022-11-29T15:04:35.413Z,18.57
2022-11-29T15:07:03.048Z,19.10
2022-11-29T15:09:32.495Z,20.03
2022-11-29T15:12:03.256Z,21.50
2022-11-29T15:14:37.614Z,19.57
2022-11-29T15:17:30.537Z,21.33
2022-11-29T15:20:27.440Z,22.43
2022-11-29T15:22:58.381Z,20.33
2022-11-29T15:25:28.366Z,20.90
2022-11-29T15:27:56.023Z,20.70
2022-11-29T15:30:30.795Z,21.50
2022-11-29T15:32:59.797Z,20.67
2022-11-29T15:35:26.926Z,20.00
2022-11-29T15:37:54.394Z,21.70
2022-11-29T15:40:23.538Z,21.10
2022-11-29T15:43:12.347Z,18.63
2022-11-29T15:45:39.886Z,19.80
2022-11-29T15:48:21.461Z,20.40
2022-11-29T15:50:53.600Z,19.90
2022-11-29T15:53:25.589Z,21.07
2022-11-29T15:55:57.134Z,19.37
2022-11-29T15:58:26.094Z,21.73
2022-11-29T16:00:53.443Z,19.93
2022-11-29T16:03:33.215Z,19.43
2022-11-29T16:06:08.388Z,18.57
2022-11-29T16:08:40.532Z,18.50
2022-11-29T16:11:12.150Z,18.70
2022-11-29T16:13:40.459Z,21.63
2022-11-29T16:16:16.348Z,21.40
2022-11-29T16:18:45.209Z,19.97
2022-11-29T16:21:26.078Z,20.33
2022-11-29T16:23:53.562Z,23.37
2022-11-29T16:26:29.022Z,21.93
2022-11-29T16:28:59.096Z,22.70
2022-11-29T16:31:35.743Z,22.03
2022-11-29T16:34:18.427Z,20.97
2022-11-29T16:36:44.924Z,21.80
2022-11-29T16:39:24.457Z,21.83
2022-11-29T16:42:12.387Z,20.63
2022-11-29T16:44:45.314Z,19.03
2022-11-29T16:47:22.467Z,21.87
2022-11-29T16:50:07.555Z,20.57
2022-11-29T16:52:34.225Z,18.83
2022-11-29T16:55:01.091Z,20.30
2022-11-29T16:57:29.234Z,20.23
2022-11-29T16:59:55.711Z,20.73
2022-11-29T17:02:22.954Z,21.80
2022-11-29T17:04:51.035Z,20.03
2022-11-29T17:07:29.651Z,20.70
2022-11-29T17:09:57.001Z,19.67
2022-11-29T17:12:24.469Z,22.23
2022-11-29T17:14:51.026Z,21.33
2022-11-29T17:17:19.097Z,20.47
2022-11-29T17:19:45.871Z,21.50
2022-11-29T17:22:12.502Z,21.23
2022-11-29T17:24:44.756Z,20.20
2022-11-29T17:27:14.458Z,21.63
2022-11-29T17:29:40.935Z,21.63
2022-11-29T17:32:07.437Z,20.90
2022-11-29T17:34:34.020Z,19.67
2022-11-29T17:37:00.566Z,20.47
2022-11-29T17:39:26.988Z,20.47
2022-11-29T17:41:53.524Z,21.33
2022-11-29T17:44:19.994Z,20.90
2022-11-29T17:46:46.621Z,22.97
2022-11-29T17:49:13.354Z,22.17
2022-11-29T17:51:51.797Z,21.97
2022-11-29T17:54:19.131Z,21.87
2022-11-29T17:56:45.590Z,22.30
2022-11-29T17:59:12.097Z,21.47
2022-11-29T18:01:38.635Z,22.07
2022-11-29T18:04:06.090Z,24.97
2022-11-29T18:06:38.435Z,23.43
2022-11-29T18:09:07.639Z,22.73
2022-11-29T18:11:47.453Z,22.70
2022-11-29T18:14:18.215Z,23.97
2022-11-29T18:16:45.758Z,23.53
2022-11-29T18:19:18.250Z,23.17
2022-11-29T18:21:44.878Z,22.23
2022-11-29T18:24:11.959Z,22.47
2022-11-29T18:26:39.132Z,23.07
2022-11-29T18:29:06.589Z,22.23
2022-11-29T18:31:36.168Z,21.23
2022-11-29T18:34:09.750Z,22.40
2022-11-29T18:36:40.268Z,22.20
2022-11-29T18:39:09.124Z,21.47
2022-11-29T18:41:36.581Z,23.47
2022-11-29T18:44:08.634Z,25.53
2022-11-29T18:46:37.483Z,25.27
2022-11-29T18:49:06.616Z,27.00
2022-11-29T18:51:34.576Z,25.70
2022-11-29T18:54:01.527Z,25.93
2022-11-29T18:56:31.123Z,25.43
2022-11-29T18:59:00.042Z,24.47
2022-11-29T19:01:29.285Z,24.83
2022-11-29T19:03:58.855Z,23.57
2022-11-29T19:06:29.397Z,23.40
2022-11-29T19:09:00.874Z,23.47
2022-11-29T19:11:29.698Z,21.47
2022-11-29T19:14:04.379Z,21.70
2022-11-29T19:16:33.754Z,24.40
2022-11-29T19:19:01.181Z,23.20
2022-11-29T19:21:30.083Z,22.87
2022-11-29T19:23:59.224Z,22.47
2022-11-29T19:26:27.871Z,21.47
2022-11-29T19:28:55.122Z,23.17
2022-11-29T19:31:27.385Z,23.67
2022-11-29T19:33:55.551Z,22.40
2022-11-29T19:36:30.561Z,21.27
2022-11-29T19:38:59.652Z,22.10
2022-11-29T19:41:29.313Z,22.57
2022-11-29T19:43:57.575Z,21.47
2022-11-29T19:46:27.130Z,22.67
2022-11-29T19:48:55.647Z,22.50
2022-11-29T19:51:22.941Z,22.73
2022-11-29T19:53:53.618Z,22.27
2022-11-29T19:56:23.644Z,22.93
2022-11-29T19:58:50.844Z,25.00
2022-11-29T20:01:18.716Z,23.53
2022-11-29T20:03:45.926Z,24.47
2022-11-29T20:06:13.675Z,23.47
2022-11-29T20:08:41.113Z,23.47
2022-11-29T20:11:13.318Z,21.90
2022-11-29T20:13:41.421Z,23.07
2022-11-29T20:16:13.836Z,22.80
2022-11-29T20:18:48.802Z,22.73
2022-11-29T20:21:31.835Z,21.10
2022-11-29T20:24:04.315Z,24.27
2022-11-29T20:26:32.979Z,24.70
2022-11-29T20:29:00.158Z,23.90
2022-11-29T20:31:26.667Z,22.03
2022-11-29T20:33:55.131Z,24.73
2022-11-29T20:36:32.968Z,23.47
2022-11-29T20:39:11.529Z,24.27
2022-11-29T20:41:46.470Z,24.17
2022-11-29T20:44:38.714Z,26.27
2022-11-29T20:47:17.962Z,25.30
2022-11-29T20:49:46.973Z,25.77
2022-11-29T20:52:25.805Z,26.50
2022-11-29T20:54:52.417Z,27.53
2022-11-29T20:57:18.837Z,27.07
2022-11-29T20:59:45.635Z,26.87
2022-11-29T21:02:12.775Z,29.93
2022-11-29T21:04:39.456Z,28.47
2022-11-29T21:07:05.895Z,29.60
2022-11-29T21:09:32.371Z,31.07
2022-11-29T21:11:59.282Z,30.40
2022-11-29T21:14:26.050Z,31.00
2022-11-29T21:16:52.772Z,29.63
2022-11-29T21:19:24.691Z,29.87
2022-11-29T21:22:15.447Z,30.33
2022-11-29T21:24:53.042Z,28.40
2022-11-29T21:27:26.899Z,28.47
2022-11-29T21:29:53.726Z,28.10
2022-11-29T21:32:25.383Z,30.77
2022-11-29T21:34:52.245Z,29.43
2022-11-29T21:37:22.696Z,30.03
2022-11-29T21:39:51.729Z,29.73
2022-11-29T21:42:18.631Z,29.70
2022-11-29T21:44:45.644Z,31.13
2022-11-29T21:47:12.736Z,35.10
2022-11-29T21:49:39.618Z,33.97
2022-11-29T21:52:06.751Z,33.30
2022-11-29T21:54:33.671Z,33.80
2022-11-29T21:57:00.139Z,31.67
2022-11-29T21:59:28.051Z,32.00
2022-11-29T22:01:55.113Z,30.33
2022-11-29T22:04:22.066Z,30.37
2022-11-29T22:06:48.577Z,31.33
2022-11-29T22:09:15.075Z,31.67
2022-11-29T22:11:41.586Z,30.73
2022-11-29T22:14:16.459Z,30.83
2022-11-29T22:16:43.932Z,28.93
2022-11-29T22:19:14.363Z,30.03
2022-11-29T22:21:42.313Z,30.40
2022-11-29T22:24:10.423Z,31.10
2022-11-29T22:26:37.775Z,31.77
2022-11-29T22:29:05.240Z,29.60
2022-11-29T22:31:32.023Z,27.97
2022-11-29T22:33:59.030Z,28.03
2022-11-29T22:36:25.630Z,30.47
2022-11-29T22:38:52.121Z,30.20
2022-11-29T22:41:18.773Z,28.40
2022-11-29T22:43:45.577Z,29.97
2022-11-29T22:46:17.936Z,29.10
2022-11-29T22:48:46.284Z,28.47
2022-11-29T22:51:15.333Z,26.60
2022-11-29T22:53:48.275Z,27.70
2022-11-29T22:56:14.984Z,29.07
2022-11-29T22:58:41.632Z,28.80
2022-11-29T23:01:16.776Z,29.23
2022-11-29T23:03:46.264Z,28.03
2022-11-29T23:06:17.511Z,27.23
2022-11-29T23:08:46.240Z,26.73
2022-11-29T23:11:15.366Z,28.00
2022-11-29T23:13:43.839Z,27.67
2022-11-29T23:16:13.882Z,26.40
2022-11-29T23:18:42.318Z,26.37
2022-11-29T23:21:27.376Z,26.43
2022-11-29T23:23:56.789Z,27.13
2022-11-29T23:26:26.434Z,26.63
2022-11-29T23:28:54.453Z,26.80
2022-11-29T23:31:21.775Z,27.97
2022-11-29T23:33:48.380Z,28.40
2022-11-29T23:36:16.377Z,28.30
2022-11-29T23:38:43.551Z,29.00
2022-11-29T23:41:10.839Z,30.17
2022-11-29T23:43:38.883Z,29.00
2022-11-29T23:46:12.194Z,30.53
2022-11-29T23:48:38.966Z,30.17
2022-11-29T23:51:05.794Z,32.37
2022-11-29T23:53:33.107Z,30.40
2022-11-29T23:56:04.569Z,30.23
2022-11-29T23:58:31.645Z,30.43
